• Join FlightAware (Why Join?)
  • Login
  • US Flag 
11:58PM EDT


 

Airport Tracker/Info


-or-


 

Live Flight TrackerFlight Track Log ✈ N560WW ✈ 28-Apr-2013 ✈ KAMA - KECP

Flight Track Log - Related Links

Times and Time Zones

All times are in EDT time to prevent confusion due to time zone crossing. See the N560WW flight status page for this flight to view local times or setup timezone preferences in your user account.

Time Position Orientation Groundspeed Altitude Reporting Facility
EDT Latitude Longitude Course Direction KTS MPH feet Rate Location/Type
11:16AM 35.1483 -101.6464 105° East 263 303 8,100  Level Albuquerque Center
11:17AM 35.1281 -101.5539 105° East 278 320 10,400 1,980 Climbing Albuquerque Center
11:18AM 35.1117 -101.4550 101° East 295 339 12,300 2,040 Climbing Albuquerque Center
11:19AM 35.0869 -101.3333 104° East 307 353 14,700 2,040 Climbing Albuquerque Center
11:20AM 35.0661 -101.2275 103° East 318 366 16,600 1,800 Climbing Albuquerque Center
11:21AM 35.0442 -101.1219 104° East 321 369 18,500 1,860 Climbing Albuquerque Center
11:22AM 35.0211 -101.0164 105° East 322 371 20,500 1,680 Climbing Albuquerque Center
11:23AM 34.9992 -100.9103 104° East 323 372 22,000 1,500 Climbing Albuquerque Center
11:24AM 34.9767 -100.8006 104° East 331 381 23,600 1,680 Climbing Albuquerque Center
11:25AM 34.9481 -100.6658 104° East 340 391 25,500 1,680 Climbing Albuquerque Center
11:26AM 34.9236 -100.5525 105° East 345 397 27,100 1,500 Climbing Albuquerque Center
11:27AM 34.8986 -100.4400 105° East 345 397 28,700 1,440 Climbing Albuquerque Center
11:28AM 34.8767 -100.3336 104° East 345 397 30,100 1,320 Climbing Albuquerque Center
11:29AM 34.8519 -100.2242 105° East 339 390 31,500 1,560 Climbing Albuquerque Center
11:30AM 34.8231 -100.0917 105° East 337 388 33,400 1,680 Climbing Albuquerque Center
11:31AM 34.7992 -99.9842 105° East 332 382 35,000 1,320 Climbing Albuquerque Center
11:32AM 34.7758 -99.8817 105° East 321 369 36,200 1,140 Climbing Albuquerque Center
11:33AM 34.7653 -99.8350 105° East 323 372 36,600 540 Climbing Fort Worth Center
11:34AM 34.7422 -99.7333 105° East 323 372 37,000 180 Climbing Fort Worth Center
11:35AM 34.7153 -99.6139 105° East 338 389 37,000  Level Fort Worth Center
11:36AM 34.6861 -99.4892 106° East 358 412 37,000  Level Fort Worth Center
11:37AM 34.6589 -99.3625 105° East 376 433 37,000  Level Fort Worth Center
11:38AM 34.6275 -99.2306 106° East 392 451 37,000  Level Fort Worth Center
11:39AM 34.6000 -99.1089 105° East 404 465 37,000  Level Fort Worth Center
11:40AM 34.5661 -98.9744 107° East 404 465 37,000  Level Fort Worth Center
11:41AM 34.5367 -98.8378 105° East 404 465 37,000  Level Fort Worth Center
11:42AM 34.5047 -98.6986 106° East 415 478 37,000  Level Fort Worth Center
11:43AM 34.4706 -98.5572 106° East 421 484 37,000  Level Fort Worth Center
11:44AM 34.4383 -98.4208 106° East 421 484 37,000  Level Fort Worth Center
11:45AM 34.4039 -98.2794 106° East 421 484 37,000  Level Fort Worth Center
11:46AM 34.3736 -98.1433 105° East 421 484 37,000  Level Fort Worth Center
11:47AM 34.3389 -98.0047 107° East 421 484 37,000  Level Fort Worth Center
11:48AM 34.3039 -97.8661 107° East 421 484 37,000  Level Fort Worth Center
11:49AM 34.2711 -97.7253 106° East 421 484 37,000  Level Fort Worth Center
11:51AM 34.2025 -97.4486 107° East 421 484 37,000  Level Fort Worth Center
11:52AM 34.1692 -97.3081 106° East 421 484 37,000  Level Fort Worth Center
11:53AM 34.1333 -97.1700 107° East 421 484 37,000  Level Fort Worth Center
11:54AM 34.1019 -97.0422 106° East 427 491 37,000  Level Fort Worth Center
11:55AM 34.0678 -96.8844 105° East 433 498 37,000  Level Fort Worth Center
11:56AM 34.0358 -96.7467 106° East 433 498 37,000  Level Fort Worth Center
11:57AM 33.9997 -96.6117 108° East 433 498 37,000  Level Fort Worth Center
11:58AM 33.9653 -96.4744 107° East 433 498 37,000  Level Fort Worth Center
11:59AM 33.9267 -96.3222 107° East 433 498 37,000  Level Fort Worth Center
12:00PM 33.8919 -96.1825 107° East 433 498 37,000  Level Fort Worth Center
12:01PM 33.8550 -96.0453 108° East 433 498 37,000  Level Fort Worth Center
12:02PM 33.8200 -95.9083 107° East 433 498 37,000  Level Fort Worth Center
12:03PM 33.7850 -95.7717 107° East 433 498 37,000  Level Fort Worth Center
12:04PM 33.7497 -95.6347 107° East 433 498 37,000  Level Fort Worth Center
12:05PM 33.7144 -95.5106 109° East 433 498 37,000  Level Fort Worth Center
12:06PM 33.6769 -95.3767 109° East 428 493 37,000  Level Fort Worth Center
12:07PM 33.6411 -95.2378 107° East 428 493 37,000  Level Fort Worth Center
12:08PM 33.6053 -95.0989 107° East 421 484 37,000  Level Fort Worth Center
12:09PM 33.5694 -94.9628 108° East 421 484 37,000  Level Fort Worth Center
12:10PM 33.5331 -94.8244 107° East 421 484 37,000  Level Fort Worth Center
12:11PM 33.4947 -94.6883 109° East 421 484 37,000  Level Fort Worth Center
12:12PM 33.4583 -94.5503 107° East 421 484 37,000  Level Fort Worth Center
12:13PM 33.4197 -94.4119 108° East 421 484 37,000  Level Fort Worth Center
12:14PM 33.3831 -94.2764 108° East 421 484 37,000  Level Fort Worth Center
12:15PM 33.3439 -94.1386 109° East 421 484 37,000  Level Fort Worth Center
12:16PM 33.3067 -93.9983 108° East 421 484 37,000  Level Fort Worth Center
12:17PM 33.2628 -93.8461 109° East 440 506 37,000  Level Fort Worth Center
12:18PM 33.2233 -93.7036 108° East 447 514 37,000  Level Fort Worth Center
12:19PM 33.1856 -93.5636 108° East 442 509 37,000  Level Fort Worth Center
12:20PM 33.1481 -93.4264 108° East 436 502 37,000  Level Fort Worth Center
12:21PM 33.1081 -93.2869 109° East 436 502 37,000  Level Fort Worth Center
12:22PM 33.0700 -93.1472 108° East 436 502 37,000  Level Fort Worth Center
12:23PM 33.0275 -93.0081 110° East 436 502 37,000  Level Fort Worth Center
12:24PM 32.9892 -92.8689 108° East 436 502 37,100  Climbing Fort Worth Center
12:25PM 32.9486 -92.7300 109° East 436 502 37,000 -60 Descending Fort Worth Center
12:26PM 32.9100 -92.5908 108° East 436 502 37,000  Level Fort Worth Center
12:27PM 32.8669 -92.4522 110° East 436 502 37,000  Level Fort Worth Center
12:29PM 32.7842 -92.1661 109° East 429 494 37,000  Level Memphis Center
12:30PM 32.7422 -92.0244 109° East 434 499 37,000  Level Memphis Center
12:31PM 32.6961 -91.8828 111° Southeast 449 517 37,000  Level Memphis Center
12:32PM 32.6558 -91.7539 110° East 455 524 37,000  Level Memphis Center
12:33PM 32.6178 -91.6128 108° East 455 524 37,000  Level Memphis Center
12:34PM 32.5711 -91.4717 111° Southeast 455 524 37,000  Level Memphis Center
12:35PM 32.5283 -91.3281 109° East 455 524 37,000  Level Memphis Center
12:36PM 32.4875 -91.1847 109° East 455 524 37,000  Level Memphis Center
12:37PM 32.4406 -91.0392 111° Southeast 455 524 37,000  Level Memphis Center
12:38PM 32.3972 -90.9011 110° East 455 524 37,000  Level Memphis Center
12:39PM 32.3539 -90.7558 109° East 455 524 37,000  Level Memphis Center
12:40PM 32.3106 -90.6131 110° East 455 524 37,000  Level Memphis Center
12:41PM 32.2669 -90.4703 110° East 455 524 37,000  Level Memphis Center
12:42PM 32.2231 -90.3328 111° Southeast 455 524 37,000  Level Memphis Center
12:43PM 32.1792 -90.1903 110° East 455 524 37,000  Level Memphis Center
12:44PM 32.1331 -90.0506 111° Southeast 455 524 37,000  Level Memphis Center
12:45PM 32.0844 -89.8964 110° East 450 518 37,000  Level Memphis Center
12:46PM 32.0400 -89.7569 111° Southeast 450 518 37,000  Level Memphis Center
12:47PM 31.9975 -89.6175 110° East 450 518 37,000  Level Memphis Center
12:48PM 31.9528 -89.4761 110° East 450 518 37,000  Level Memphis Center
12:49PM 31.9058 -89.3394 112° Southeast 450 518 37,000  Level Memphis Center
12:50PM 31.8606 -89.1981 111° Southeast 450 518 37,000  Level Memphis Center
12:51PM 31.8156 -89.0764 113° Southeast 450 518 37,000  Level Memphis Center
12:52PM 31.7725 -88.9403 110° East 449 517 37,000  Level Memphis Center
12:54PM 31.6633 -88.7158 120° Southeast 439 505 37,000  Level Houston Center
12:55PM 31.6169 -88.5789 112° Southeast 442 509 37,000  Level Houston Center
12:56PM 31.5711 -88.4389 111° Southeast 454 522 37,000  Level Houston Center
12:57PM 31.5061 -88.3172 122° Southeast 444 511 37,000 -300 Level Houston Center
12:58PM 31.4283 -88.2028 129° Southeast 444 511 36,400 -780 Descending Houston Center
12:59PM 31.3644 -88.0733 120° Southeast 471 542 35,400 -780 Descending Houston Center
01:00PM 31.3131 -87.9372 114° Southeast 458 527 34,900 -1,020 Descending Houston Center
01:01PM 31.2594 -87.7942 114° Southeast 474 545 33,400 -1,740 Descending Houston Center
01:02PM 31.2011 -87.6319 113° Southeast 451 519 31,400 -1,800 Descending Houston Center
01:03PM 31.1639 -87.4961 108° East 441 507 29,700 -1,620 Descending Houston Center
01:04PM 31.1272 -87.3544 107° East 454 522 28,100 -1,740 Descending Houston Center
01:04PM 31.1169 -87.3039 103° East 456 525 27,400 -1,800 Descending Jacksonville Center
01:05PM 31.0819 -87.1664 107° East 461 531 25,800 -1,620 Descending Jacksonville Center
01:06PM 31.0489 -87.0342 106° East 445 512 24,200 -1,620 Descending Jacksonville Center
01:07PM 31.0175 -86.9042 106° East 422 486 22,600 -1,140 Descending Jacksonville Center
01:08PM 30.9875 -86.7914 107° East 415 478 22,000 -1,020 Descending Jacksonville Center
01:09PM 30.9308 -86.6633 117° Southeast 402 463 20,600 -1,800 Descending Jacksonville Center
01:10PM 30.8672 -86.5614 126° Southeast 413 475 18,400 -2,100 Descending Jacksonville Center
01:11PM 30.8069 -86.4719 128° Southeast 387 445 16,500 -2,040 Descending Jacksonville Center
01:12PM 30.7492 -86.3806 126° Southeast 361 415 14,400 -1,920 Descending Jacksonville Center
01:13PM 30.6931 -86.2939 127° Southeast 350 403 12,700 -1,800 Descending Jacksonville Center
01:14PM 30.6386 -86.2147 129° Southeast 330 380 10,900 -1,800 Descending Jacksonville Center
01:15PM 30.6036 -86.1217 114° Southeast 323 372 9,100 -1,920 Descending Jacksonville Center
01:16PM 30.5847 -86.0392 105° East 285 328 7,100 -2,220 Descending Jacksonville Center
01:17PM 30.5656 -85.9636 106° East 261 300 4,700 -2,220 Descending Jacksonville Center
01:18PM 30.5250 -85.9117 132° Southeast 231 266 2,700 -1,380 Descending Jacksonville Center
01:19PM 30.4803 -85.8669 139° Southeast 214 246 2,000 -720 Descending Jacksonville Center